sensor_id;sensor_type;location;lat;lon;timestamp;pressure;altitude;pressure_sealevel;temperature;humidity
55066;BME280;40964;42.114;24.220;2023-05-08T00:01:33;98069.41;;;13.33;76.68
55066;BME280;40964;42.114;24.220;2023-05-08T00:03:58;98064.72;;;13.35;76.92
55066;BME280;40964;42.114;24.220;2023-05-08T00:06:24;98074.47;;;13.34;76.56
55066;BME280;40964;42.114;24.220;2023-05-08T00:08:52;98059.66;;;13.33;77.10
55066;BME280;40964;42.114;24.220;2023-05-08T00:11:17;98066.78;;;13.33;76.68
55066;BME280;40964;42.114;24.220;2023-05-08T00:13:43;98060.69;;;13.32;76.71
55066;BME280;40964;42.114;24.220;2023-05-08T00:16:08;98054.25;;;13.28;76.85
55066;BME280;40964;42.114;24.220;2023-05-08T00:18:35;98058.41;;;13.36;76.86
55066;BME280;40964;42.114;24.220;2023-05-08T00:21:03;98061.50;;;13.33;76.28
55066;BME280;40964;42.114;24.220;2023-05-08T00:23:28;98065.59;;;13.29;77.12
55066;BME280;40964;42.114;24.220;2023-05-08T00:25:53;98061.97;;;13.30;76.99
55066;BME280;40964;42.114;24.220;2023-05-08T00:28:19;98059.66;;;13.22;77.13
55066;BME280;40964;42.114;24.220;2023-05-08T00:30:45;98065.94;;;13.21;77.38
55066;BME280;40964;42.114;24.220;2023-05-08T00:33:10;98068.38;;;13.22;77.25
55066;BME280;40964;42.114;24.220;2023-05-08T00:35:36;98062.69;;;13.19;77.60
55066;BME280;40964;42.114;24.220;2023-05-08T00:38:01;98060.91;;;13.01;77.70
55066;BME280;40964;42.114;24.220;2023-05-08T00:40:27;98069.31;;;13.10;77.53
55066;BME280;40964;42.114;24.220;2023-05-08T00:42:52;98065.16;;;13.02;78.30
55066;BME280;40964;42.114;24.220;2023-05-08T00:45:18;98072.50;;;13.00;78.73
55066;BME280;40964;42.114;24.220;2023-05-08T00:47:44;98068.34;;;12.92;79.09
55066;BME280;40964;42.114;24.220;2023-05-08T00:50:09;98077.44;;;12.96;78.74
55066;BME280;40964;42.114;24.220;2023-05-08T00:52:35;98068.13;;;12.94;78.46
55066;BME280;40964;42.114;24.220;2023-05-08T00:55:03;98083.31;;;12.98;78.28
55066;BME280;40964;42.114;24.220;2023-05-08T00:57:31;98072.72;;;12.87;78.52
55066;BME280;40964;42.114;24.220;2023-05-08T01:00:00;98081.66;;;12.86;78.05
55066;BME280;40964;42.114;24.220;2023-05-08T01:02:27;98072.56;;;12.82;77.46
55066;BME280;40964;42.114;24.220;2023-05-08T01:04:55;98074.16;;;12.83;78.56
55066;BME280;40964;42.114;24.220;2023-05-08T01:07:21;98078.06;;;12.80;78.86
55066;BME280;40964;42.114;24.220;2023-05-08T01:09:47;98081.28;;;12.82;78.43
55066;BME280;40964;42.114;24.220;2023-05-08T01:12:55;98082.31;;;12.81;78.06
55066;BME280;40964;42.114;24.220;2023-05-08T01:15:30;98086.88;;;12.74;78.98
55066;BME280;40964;42.114;24.220;2023-05-08T01:20:36;98080.41;;;12.58;79.59
55066;BME280;40964;42.114;24.220;2023-05-08T01:28:53;98088.22;;;12.46;80.26
55066;BME280;40964;42.114;24.220;2023-05-08T01:34:09;98093.09;;;12.31;80.93
55066;BME280;40964;42.114;24.220;2023-05-08T01:39:55;98097.09;;;12.15;81.29
55066;BME280;40964;42.114;24.220;2023-05-08T01:42:52;98097.16;;;12.09;82.18
55066;BME280;40964;42.114;24.220;2023-05-08T01:45:37;98091.09;;;12.08;82.99
55066;BME280;40964;42.114;24.220;2023-05-08T01:48:05;98096.00;;;12.05;82.29
55066;BME280;40964;42.114;24.220;2023-05-08T01:50:37;98103.28;;;12.03;82.07
55066;BME280;40964;42.114;24.220;2023-05-08T01:53:09;98097.31;;;11.96;81.89
55066;BME280;40964;42.114;24.220;2023-05-08T01:55:38;98105.13;;;12.02;82.53
55066;BME280;40964;42.114;24.220;2023-05-08T01:58:08;98103.75;;;12.00;82.32
55066;BME280;40964;42.114;24.220;2023-05-08T02:00:37;98096.84;;;11.99;82.36
55066;BME280;40964;42.114;24.220;2023-05-08T02:03:05;98111.66;;;12.00;82.13
55066;BME280;40964;42.114;24.220;2023-05-08T02:05:33;98101.31;;;11.98;82.20
55066;BME280;40964;42.114;24.220;2023-05-08T02:08:01;98101.81;;;11.88;82.22
55066;BME280;40964;42.114;24.220;2023-05-08T02:10:27;98104.28;;;11.83;82.57
55066;BME280;40964;42.114;24.220;2023-05-08T02:12:54;98111.84;;;11.80;82.80
55066;BME280;40964;42.114;24.220;2023-05-08T02:15:20;98097.06;;;11.72;82.21
55066;BME280;40964;42.114;24.220;2023-05-08T02:17:48;98107.88;;;11.64;82.10
55066;BME280;40964;42.114;24.220;2023-05-08T02:20:15;98095.78;;;11.56;82.40
55066;BME280;40964;42.114;24.220;2023-05-08T02:22:42;98103.28;;;11.59;82.61
55066;BME280;40964;42.114;24.220;2023-05-08T02:25:11;98095.16;;;11.61;82.34
55066;BME280;40964;42.114;24.220;2023-05-08T02:27:40;98099.16;;;11.63;82.06
55066;BME280;40964;42.114;24.220;2023-05-08T02:30:11;98097.78;;;11.61;81.25
55066;BME280;40964;42.114;24.220;2023-05-08T02:32:38;98094.91;;;11.62;81.31
55066;BME280;40964;42.114;24.220;2023-05-08T02:35:05;98097.56;;;11.62;81.40
55066;BME280;40964;42.114;24.220;2023-05-08T02:37:32;98093.47;;;11.66;81.52
55066;BME280;40964;42.114;24.220;2023-05-08T02:40:00;98102.97;;;11.68;81.59
55066;BME280;40964;42.114;24.220;2023-05-08T02:42:29;98098.72;;;11.66;81.62
55066;BME280;40964;42.114;24.220;2023-05-08T02:44:54;98101.00;;;11.63;81.73
55066;BME280;40964;42.114;24.220;2023-05-08T02:47:24;98089.69;;;11.56;82.36
55066;BME280;40964;42.114;24.220;2023-05-08T02:49:55;98090.50;;;11.56;81.59
55066;BME280;40964;42.114;24.220;2023-05-08T02:52:29;98097.25;;;11.52;82.68
55066;BME280;40964;42.114;24.220;2023-05-08T02:55:00;98093.63;;;11.47;82.68
55066;BME280;40964;42.114;24.220;2023-05-08T02:57:38;98096.03;;;11.48;82.18
55066;BME280;40964;42.114;24.220;2023-05-08T03:00:21;98099.47;;;11.49;82.04
55066;BME280;40964;42.114;24.220;2023-05-08T03:02:54;98102.78;;;11.44;82.06
55066;BME280;40964;42.114;24.220;2023-05-08T03:05:36;98097.31;;;11.39;82.67
55066;BME280;40964;42.114;24.220;2023-05-08T03:08:12;98101.81;;;11.32;82.17
55066;BME280;40964;42.114;24.220;2023-05-08T03:10:42;98102.66;;;11.32;82.62
55066;BME280;40964;42.114;24.220;2023-05-08T03:13:10;98108.50;;;11.34;83.15
55066;BME280;40964;42.114;24.220;2023-05-08T03:15:44;98112.53;;;11.37;82.65
55066;BME280;40964;42.114;24.220;2023-05-08T03:18:14;98113.94;;;11.40;82.96
55066;BME280;40964;42.114;24.220;2023-05-08T03:20:45;98120.66;;;11.35;82.86
55066;BME280;40964;42.114;24.220;2023-05-08T03:23:16;98126.34;;;11.32;82.90
55066;BME280;40964;42.114;24.220;2023-05-08T03:25:43;98122.25;;;11.36;83.35
55066;BME280;40964;42.114;24.220;2023-05-08T03:28:09;98135.00;;;11.40;83.68
55066;BME280;40964;42.114;24.220;2023-05-08T03:30:36;98126.06;;;11.41;83.57
55066;BME280;40964;42.114;24.220;2023-05-08T03:33:04;98130.75;;;11.38;84.63
55066;BME280;40964;42.114;24.220;2023-05-08T03:35:34;98136.19;;;11.44;85.24
55066;BME280;40964;42.114;24.220;2023-05-08T03:38:01;98141.00;;;11.53;84.07
55066;BME280;40964;42.114;24.220;2023-05-08T03:40:27;98138.38;;;11.78;82.81
55066;BME280;40964;42.114;24.220;2023-05-08T03:42:53;98129.06;;;12.01;81.73
55066;BME280;40964;42.114;24.220;2023-05-08T03:45:19;98124.34;;;12.28;81.10
55066;BME280;40964;42.114;24.220;2023-05-08T03:47:45;98126.56;;;12.67;79.86
55066;BME280;40964;42.114;24.220;2023-05-08T03:50:10;98127.66;;;13.08;77.94
55066;BME280;40964;42.114;24.220;2023-05-08T03:52:37;98134.81;;;13.49;76.54
55066;BME280;40964;42.114;24.220;2023-05-08T03:55:02;98133.59;;;13.87;74.39
55066;BME280;40964;42.114;24.220;2023-05-08T03:57:35;98135.78;;;14.25;72.33
55066;BME280;40964;42.114;24.220;2023-05-08T04:00:06;98135.28;;;14.63;71.18
55066;BME280;40964;42.114;24.220;2023-05-08T04:02:49;98142.44;;;15.03;69.74
55066;BME280;40964;42.114;24.220;2023-05-08T04:05:35;98145.25;;;15.42;68.19
55066;BME280;40964;42.114;24.220;2023-05-08T04:08:08;98145.47;;;15.69;64.83
55066;BME280;40964;42.114;24.220;2023-05-08T04:13:44;98133.97;;;15.97;60.34
55066;BME280;40964;42.114;24.220;2023-05-08T04:16:21;98138.75;;;16.33;59.57
55066;BME280;40964;42.114;24.220;2023-05-08T04:18:52;98136.97;;;16.61;58.78
55066;BME280;40964;42.114;24.220;2023-05-08T04:21:22;98133.97;;;16.96;56.77
55066;BME280;40964;42.114;24.220;2023-05-08T04:23:49;98123.28;;;17.13;55.91
55066;BME280;40964;42.114;24.220;2023-05-08T04:26:18;98139.38;;;17.01;55.47
55066;BME280;40964;42.114;24.220;2023-05-08T04:28:44;98149.63;;;16.92;57.01
55066;BME280;40964;42.114;24.220;2023-05-08T04:31:15;98147.25;;;16.96;57.01
55066;BME280;40964;42.114;24.220;2023-05-08T04:33:44;98143.47;;;17.14;56.99
55066;BME280;40964;42.114;24.220;2023-05-08T04:36:11;98140.44;;;17.27;55.70
55066;BME280;40964;42.114;24.220;2023-05-08T04:38:37;98140.47;;;17.32;54.43
55066;BME280;40964;42.114;24.220;2023-05-08T04:41:02;98143.13;;;17.32;55.00
55066;BME280;40964;42.114;24.220;2023-05-08T04:43:28;98139.47;;;16.89;55.75
55066;BME280;40964;42.114;24.220;2023-05-08T04:45:53;98147.06;;;16.59;56.60
55066;BME280;40964;42.114;24.220;2023-05-08T04:48:19;98135.59;;;16.75;57.38
55066;BME280;40964;42.114;24.220;2023-05-08T04:50:44;98132.03;;;17.13;55.06
55066;BME280;40964;42.114;24.220;2023-05-08T04:53:09;98132.59;;;17.15;55.44
55066;BME280;40964;42.114;24.220;2023-05-08T04:55:35;98130.94;;;17.09;54.70
55066;BME280;40964;42.114;24.220;2023-05-08T04:58:00;98122.66;;;17.06;55.49
55066;BME280;40964;42.114;24.220;2023-05-08T05:00:26;98129.47;;;17.23;56.69
55066;BME280;40964;42.114;24.220;2023-05-08T05:02:51;98124.88;;;17.14;54.64
55066;BME280;40964;42.114;24.220;2023-05-08T05:05:17;98125.75;;;17.19;54.30
55066;BME280;40964;42.114;24.220;2023-05-08T05:07:42;98129.56;;;17.07;53.82
55066;BME280;40964;42.114;24.220;2023-05-08T05:10:09;98123.69;;;16.99;52.53
55066;BME280;40964;42.114;24.220;2023-05-08T05:12:34;98120.50;;;17.02;52.48
55066;BME280;40964;42.114;24.220;2023-05-08T05:15:00;98131.41;;;17.01;52.97
55066;BME280;40964;42.114;24.220;2023-05-08T05:17:25;98120.00;;;17.06;53.89
55066;BME280;40964;42.114;24.220;2023-05-08T05:19:51;98119.72;;;17.02;52.12
55066;BME280;40964;42.114;24.220;2023-05-08T05:22:17;98120.84;;;16.84;53.44
55066;BME280;40964;42.114;24.220;2023-05-08T05:24:42;98114.28;;;16.92;53.17
55066;BME280;40964;42.114;24.220;2023-05-08T05:27:08;98115.88;;;16.93;51.30
55066;BME280;40964;42.114;24.220;2023-05-08T05:29:33;98118.44;;;16.83;52.79
55066;BME280;40964;42.114;24.220;2023-05-08T05:31:59;98118.53;;;16.71;54.08
55066;BME280;40964;42.114;24.220;2023-05-08T05:34:24;98119.28;;;16.88;52.39
55066;BME280;40964;42.114;24.220;2023-05-08T05:36:49;98109.28;;;16.95;51.74
55066;BME280;40964;42.114;24.220;2023-05-08T05:39:15;98104.56;;;17.02;51.87
55066;BME280;40964;42.114;24.220;2023-05-08T05:41:40;98114.75;;;16.67;51.48
55066;BME280;40964;42.114;24.220;2023-05-08T05:44:08;98110.34;;;16.72;52.43
55066;BME280;40964;42.114;24.220;2023-05-08T05:46:34;98114.66;;;16.79;53.08
55066;BME280;40964;42.114;24.220;2023-05-08T05:48:59;98104.81;;;17.01;52.08
55066;BME280;40964;42.114;24.220;2023-05-08T05:51:25;98112.69;;;17.18;52.90
55066;BME280;40964;42.114;24.220;2023-05-08T05:53:52;98101.56;;;17.21;51.81
55066;BME280;40964;42.114;24.220;2023-05-08T05:56:17;98092.34;;;17.28;51.41
55066;BME280;40964;42.114;24.220;2023-05-08T05:58:43;98098.63;;;17.17;52.10
55066;BME280;40964;42.114;24.220;2023-05-08T06:01:12;98082.44;;;17.24;52.73
55066;BME280;40964;42.114;24.220;2023-05-08T06:03:37;98084.91;;;17.03;52.24
55066;BME280;40964;42.114;24.220;2023-05-08T06:06:03;98081.72;;;17.01;54.25
55066;BME280;40964;42.114;24.220;2023-05-08T06:08:29;98076.06;;;16.98;53.95
55066;BME280;40964;42.114;24.220;2023-05-08T06:10:55;98076.22;;;17.13;53.08
55066;BME280;40964;42.114;24.220;2023-05-08T06:13:20;98078.59;;;17.10;53.62
55066;BME280;40964;42.114;24.220;2023-05-08T06:15:46;98078.19;;;17.23;53.52
55066;BME280;40964;42.114;24.220;2023-05-08T06:18:12;98081.50;;;17.35;54.91
55066;BME280;40964;42.114;24.220;2023-05-08T06:20:38;98087.03;;;17.34;54.23
55066;BME280;40964;42.114;24.220;2023-05-08T06:23:04;98079.47;;;17.47;55.01
55066;BME280;40964;42.114;24.220;2023-05-08T06:25:30;98071.31;;;17.27;53.73
55066;BME280;40964;42.114;24.220;2023-05-08T06:27:55;98083.38;;;17.40;56.27
55066;BME280;40964;42.114;24.220;2023-05-08T06:30:22;98084.78;;;17.47;53.25
55066;BME280;40964;42.114;24.220;2023-05-08T06:32:47;98068.38;;;17.60;53.92
55066;BME280;40964;42.114;24.220;2023-05-08T06:35:13;98070.50;;;17.58;54.55
55066;BME280;40964;42.114;24.220;2023-05-08T06:37:43;98068.00;;;17.79;56.29
55066;BME280;40964;42.114;24.220;2023-05-08T06:40:09;98070.34;;;18.12;54.13
55066;BME280;40964;42.114;24.220;2023-05-08T06:42:35;98067.19;;;18.21;53.38
55066;BME280;40964;42.114;24.220;2023-05-08T06:45:01;98075.28;;;18.36;51.88
55066;BME280;40964;42.114;24.220;2023-05-08T06:47:26;98064.44;;;18.58;54.61
55066;BME280;40964;42.114;24.220;2023-05-08T06:49:52;98064.53;;;18.78;52.85
55066;BME280;40964;42.114;24.220;2023-05-08T06:52:18;98058.97;;;18.90;51.01
55066;BME280;40964;42.114;24.220;2023-05-08T06:54:44;98061.09;;;18.93;52.09
55066;BME280;40964;42.114;24.220;2023-05-08T06:57:10;98063.50;;;18.94;52.37
55066;BME280;40964;42.114;24.220;2023-05-08T06:59:37;98061.06;;;18.83;50.75
55066;BME280;40964;42.114;24.220;2023-05-08T07:02:03;98053.91;;;18.93;53.05
55066;BME280;40964;42.114;24.220;2023-05-08T07:04:28;98062.69;;;18.94;51.17
55066;BME280;40964;42.114;24.220;2023-05-08T07:06:54;98062.16;;;18.92;51.71
55066;BME280;40964;42.114;24.220;2023-05-08T07:09:19;98058.44;;;19.03;52.28
55066;BME280;40964;42.114;24.220;2023-05-08T07:11:45;98059.06;;;19.61;51.06
55066;BME280;40964;42.114;24.220;2023-05-08T07:14:10;98055.03;;;19.64;50.20
55066;BME280;40964;42.114;24.220;2023-05-08T07:16:35;98056.38;;;19.51;50.21
55066;BME280;40964;42.114;24.220;2023-05-08T07:19:02;98053.97;;;19.65;50.71
55066;BME280;40964;42.114;24.220;2023-05-08T07:21:27;98063.03;;;19.53;50.43
55066;BME280;40964;42.114;24.220;2023-05-08T07:23:53;98052.13;;;19.60;50.93
55066;BME280;40964;42.114;24.220;2023-05-08T07:26:19;98045.69;;;19.87;49.50
55066;BME280;40964;42.114;24.220;2023-05-08T07:28:45;98045.63;;;20.02;50.76
55066;BME280;40964;42.114;24.220;2023-05-08T07:31:11;98043.72;;;20.12;49.12
55066;BME280;40964;42.114;24.220;2023-05-08T07:33:36;98046.19;;;19.99;51.66
55066;BME280;40964;42.114;24.220;2023-05-08T07:36:02;98044.34;;;19.89;50.46
55066;BME280;40964;42.114;24.220;2023-05-08T07:38:27;98049.66;;;19.99;50.52
55066;BME280;40964;42.114;24.220;2023-05-08T07:40:53;98051.72;;;20.23;48.96
55066;BME280;40964;42.114;24.220;2023-05-08T07:43:24;98035.09;;;20.31;47.81
55066;BME280;40964;42.114;24.220;2023-05-08T07:45:50;98043.44;;;20.24;48.21
55066;BME280;40964;42.114;24.220;2023-05-08T07:48:16;98040.16;;;20.37;48.57
55066;BME280;40964;42.114;24.220;2023-05-08T07:50:41;98034.50;;;20.59;50.21
55066;BME280;40964;42.114;24.220;2023-05-08T07:53:07;98040.50;;;20.26;47.61
55066;BME280;40964;42.114;24.220;2023-05-08T07:55:32;98038.03;;;20.50;49.81
55066;BME280;40964;42.114;24.220;2023-05-08T07:57:58;98026.97;;;20.66;47.56
55066;BME280;40964;42.114;24.220;2023-05-08T08:00:24;98031.78;;;20.64;48.97
55066;BME280;40964;42.114;24.220;2023-05-08T08:02:52;98024.41;;;20.90;47.92
55066;BME280;40964;42.114;24.220;2023-05-08T08:05:18;98036.75;;;21.31;45.65
55066;BME280;40964;42.114;24.220;2023-05-08T08:07:43;98031.16;;;21.56;45.68
55066;BME280;40964;42.114;24.220;2023-05-08T08:10:09;98028.13;;;21.39;47.39
55066;BME280;40964;42.114;24.220;2023-05-08T08:12:34;98023.31;;;21.65;45.52
55066;BME280;40964;42.114;24.220;2023-05-08T08:15:00;98027.78;;;21.45;46.02
55066;BME280;40964;42.114;24.220;2023-05-08T08:17:25;98019.00;;;21.69;46.04
55066;BME280;40964;42.114;24.220;2023-05-08T08:19:51;98018.63;;;21.80;47.12
55066;BME280;40964;42.114;24.220;2023-05-08T08:22:16;98018.41;;;21.77;45.46
55066;BME280;40964;42.114;24.220;2023-05-08T08:24:42;98024.41;;;21.35;45.56
55066;BME280;40964;42.114;24.220;2023-05-08T08:27:07;98021.78;;;21.59;46.21
55066;BME280;40964;42.114;24.220;2023-05-08T08:29:32;98012.59;;;21.36;45.92
55066;BME280;40964;42.114;24.220;2023-05-08T08:31:58;98022.03;;;21.28;47.38
55066;BME280;40964;42.114;24.220;2023-05-08T08:34:24;98017.53;;;21.52;46.13
55066;BME280;40964;42.114;24.220;2023-05-08T08:36:50;98014.47;;;21.40;46.69
55066;BME280;40964;42.114;24.220;2023-05-08T08:39:15;98010.41;;;21.72;47.13
55066;BME280;40964;42.114;24.220;2023-05-08T08:41:41;98002.16;;;21.92;45.68
55066;BME280;40964;42.114;24.220;2023-05-08T08:44:06;98005.13;;;21.91;45.35
55066;BME280;40964;42.114;24.220;2023-05-08T08:46:32;98000.66;;;21.81;45.73
55066;BME280;40964;42.114;24.220;2023-05-08T08:49:02;98004.94;;;22.06;45.68
55066;BME280;40964;42.114;24.220;2023-05-08T08:51:32;98000.34;;;22.54;44.33
55066;BME280;40964;42.114;24.220;2023-05-08T08:54:07;97996.66;;;22.50;45.90
55066;BME280;40964;42.114;24.220;2023-05-08T08:56:35;98001.66;;;22.38;46.92
55066;BME280;40964;42.114;24.220;2023-05-08T08:59:03;97984.66;;;22.48;45.42
55066;BME280;40964;42.114;24.220;2023-05-08T09:01:29;97990.50;;;22.69;43.92
55066;BME280;40964;42.114;24.220;2023-05-08T09:03:58;97982.63;;;22.77;46.17
55066;BME280;40964;42.114;24.220;2023-05-08T09:06:24;97992.22;;;22.22;46.83
55066;BME280;40964;42.114;24.220;2023-05-08T09:08:50;97980.88;;;22.49;45.12
55066;BME280;40964;42.114;24.220;2023-05-08T09:11:19;97982.28;;;22.65;45.30
55066;BME280;40964;42.114;24.220;2023-05-08T09:13:45;97975.44;;;22.54;45.05
55066;BME280;40964;42.114;24.220;2023-05-08T09:16:10;97974.63;;;22.34;44.58
55066;BME280;40964;42.114;24.220;2023-05-08T09:18:36;97977.31;;;22.53;45.64
55066;BME280;40964;42.114;24.220;2023-05-08T09:21:01;97970.06;;;22.91;44.74
55066;BME280;40964;42.114;24.220;2023-05-08T09:23:27;97964.84;;;23.33;46.32
55066;BME280;40964;42.114;24.220;2023-05-08T09:25:53;97955.03;;;23.09;43.32
55066;BME280;40964;42.114;24.220;2023-05-08T09:28:20;97951.63;;;23.36;45.65
55066;BME280;40964;42.114;24.220;2023-05-08T09:30:53;97948.53;;;23.75;44.28
55066;BME280;40964;42.114;24.220;2023-05-08T09:33:20;97936.59;;;23.68;45.60
55066;BME280;40964;42.114;24.220;2023-05-08T09:35:47;97942.50;;;23.51;46.36
55066;BME280;40964;42.114;24.220;2023-05-08T09:41:10;97925.47;;;23.74;45.63
55066;BME280;40964;42.114;24.220;2023-05-08T09:43:37;97911.31;;;24.10;44.56
55066;BME280;40964;42.114;24.220;2023-05-08T09:46:32;97920.38;;;23.59;44.16
55066;BME280;40964;42.114;24.220;2023-05-08T09:49:02;97918.88;;;23.81;45.16
55066;BME280;40964;42.114;24.220;2023-05-08T09:51:29;97911.31;;;23.96;43.59
55066;BME280;40964;42.114;24.220;2023-05-08T09:53:57;97909.34;;;23.61;44.20
55066;BME280;40964;42.114;24.220;2023-05-08T09:58:54;97909.81;;;24.04;43.63
55066;BME280;40964;42.114;24.220;2023-05-08T10:01:46;97908.31;;;23.98;44.85
55066;BME280;40964;42.114;24.220;2023-05-08T10:04:13;97902.38;;;23.87;44.58
55066;BME280;40964;42.114;24.220;2023-05-08T10:06:39;97892.75;;;24.22;44.28
55066;BME280;40964;42.114;24.220;2023-05-08T10:09:12;97887.03;;;23.88;44.20
55066;BME280;40964;42.114;24.220;2023-05-08T10:11:49;97896.28;;;23.95;43.30
55066;BME280;40964;42.114;24.220;2023-05-08T10:14:17;97884.94;;;24.48;42.91
55066;BME280;40964;42.114;24.220;2023-05-08T10:16:44;97878.19;;;24.73;42.66
55066;BME280;40964;42.114;24.220;2023-05-08T10:19:13;97874.84;;;25.21;43.47
55066;BME280;40964;42.114;24.220;2023-05-08T10:21:41;97877.66;;;25.16;41.62
55066;BME280;40964;42.114;24.220;2023-05-08T10:24:13;97880.91;;;25.04;39.97
55066;BME280;40964;42.114;24.220;2023-05-08T10:26:42;97877.72;;;25.33;42.57
55066;BME280;40964;42.114;24.220;2023-05-08T10:29:15;97872.31;;;25.64;41.11
55066;BME280;40964;42.114;24.220;2023-05-08T10:31:42;97867.66;;;26.13;41.18
55066;BME280;40964;42.114;24.220;2023-05-08T10:34:15;97872.31;;;26.47;38.88
55066;BME280;40964;42.114;24.220;2023-05-08T10:36:43;97869.75;;;26.59;39.14
55066;BME280;40964;42.114;24.220;2023-05-08T10:39:10;97864.16;;;26.91;37.55
55066;BME280;40964;42.114;24.220;2023-05-08T10:41:36;97867.56;;;26.53;37.74
55066;BME280;40964;42.114;24.220;2023-05-08T10:44:02;97878.78;;;26.20;39.72
55066;BME280;40964;42.114;24.220;2023-05-08T10:49:19;97879.06;;;25.93;38.28
55066;BME280;40964;42.114;24.220;2023-05-08T10:51:57;97874.50;;;26.28;41.38
55066;BME280;40964;42.114;24.220;2023-05-08T10:54:41;97880.88;;;26.58;38.54
55066;BME280;40964;42.114;24.220;2023-05-08T10:57:12;97876.09;;;26.81;37.52
55066;BME280;40964;42.114;24.220;2023-05-08T10:59:44;97878.97;;;26.67;40.26
55066;BME280;40964;42.114;24.220;2023-05-08T11:02:09;97878.97;;;26.41;39.30
55066;BME280;40964;42.114;24.220;2023-05-08T11:04:34;97889.91;;;26.79;38.48
55066;BME280;40964;42.114;24.220;2023-05-08T11:07:00;97889.59;;;26.81;39.14
55066;BME280;40964;42.114;24.220;2023-05-08T11:09:28;97883.53;;;26.32;37.99
55066;BME280;40964;42.114;24.220;2023-05-08T11:12:19;97881.19;;;25.65;38.76
55066;BME280;40964;42.114;24.220;2023-05-08T11:14:55;97875.63;;;25.70;40.04
55066;BME280;40964;42.114;24.220;2023-05-08T11:17:22;97878.22;;;25.75;39.58
55066;BME280;40964;42.114;24.220;2023-05-08T11:19:56;97881.25;;;25.42;41.04
55066;BME280;40964;42.114;24.220;2023-05-08T11:22:24;97878.28;;;24.90;42.94
55066;BME280;40964;42.114;24.220;2023-05-08T11:24:52;97881.16;;;24.49;43.66
55066;BME280;40964;42.114;24.220;2023-05-08T11:27:34;97878.34;;;24.18;45.10
55066;BME280;40964;42.114;24.220;2023-05-08T11:36:10;97883.81;;;23.17;48.57
55066;BME280;40964;42.114;24.220;2023-05-08T11:38:37;97871.84;;;22.96;47.68
55066;BME280;40964;42.114;24.220;2023-05-08T11:47:07;97848.03;;;23.08;51.51
55066;BME280;40964;42.114;24.220;2023-05-08T11:49:25;97845.56;;;23.25;55.27
55066;BME280;40964;42.114;24.220;2023-05-08T11:51:53;97839.13;;;23.40;56.34
55066;BME280;40964;42.114;24.220;2023-05-08T11:54:23;97828.25;;;23.45;61.10
55066;BME280;40964;42.114;24.220;2023-05-08T11:56:50;97822.81;;;23.50;61.12
55066;BME280;40964;42.114;24.220;2023-05-08T11:59:16;97825.31;;;23.46;64.60
55066;BME280;40964;42.114;24.220;2023-05-08T12:01:42;97818.41;;;23.27;63.98
55066;BME280;40964;42.114;24.220;2023-05-08T12:04:10;97818.03;;;23.06;63.03
55066;BME280;40964;42.114;24.220;2023-05-08T12:06:37;97803.50;;;22.93;62.17
55066;BME280;40964;42.114;24.220;2023-05-08T12:09:12;97802.06;;;22.82;65.67
55066;BME280;40964;42.114;24.220;2023-05-08T12:11:39;97795.34;;;22.98;64.38
55066;BME280;40964;42.114;24.220;2023-05-08T12:14:08;97780.25;;;23.16;66.38
55066;BME280;40964;42.114;24.220;2023-05-08T12:16:35;97788.81;;;23.73;61.73
55066;BME280;40964;42.114;24.220;2023-05-08T12:19:02;97778.56;;;23.97;60.57
55066;BME280;40964;42.114;24.220;2023-05-08T12:21:27;97776.06;;;24.37;53.40
55066;BME280;40964;42.114;24.220;2023-05-08T12:23:54;97773.16;;;24.87;49.79
55066;BME280;40964;42.114;24.220;2023-05-08T12:26:20;97773.78;;;24.84;46.21
55066;BME280;40964;42.114;24.220;2023-05-08T12:28:53;97776.97;;;24.86;41.65
55066;BME280;40964;42.114;24.220;2023-05-08T12:31:19;97779.19;;;24.84;40.14
55066;BME280;40964;42.114;24.220;2023-05-08T12:33:44;97775.47;;;25.02;41.92
55066;BME280;40964;42.114;24.220;2023-05-08T12:36:10;97778.38;;;25.14;41.98
55066;BME280;40964;42.114;24.220;2023-05-08T12:38:35;97778.69;;;25.13;43.36
55066;BME280;40964;42.114;24.220;2023-05-08T12:41:01;97769.97;;;25.07;42.01
55066;BME280;40964;42.114;24.220;2023-05-08T12:43:33;97768.81;;;25.00;40.05
55066;BME280;40964;42.114;24.220;2023-05-08T12:45:59;97768.94;;;24.95;40.79
55066;BME280;40964;42.114;24.220;2023-05-08T12:48:25;97744.38;;;24.87;46.37
55066;BME280;40964;42.114;24.220;2023-05-08T12:50:51;97760.41;;;25.01;47.42
55066;BME280;40964;42.114;24.220;2023-05-08T12:53:18;97760.13;;;25.03;44.77
55066;BME280;40964;42.114;24.220;2023-05-08T12:55:57;97750.34;;;25.15;45.01
55066;BME280;40964;42.114;24.220;2023-05-08T12:58:24;97738.34;;;25.22;42.14
55066;BME280;40964;42.114;24.220;2023-05-08T13:00:51;97736.31;;;25.27;41.78
55066;BME280;40964;42.114;24.220;2023-05-08T13:03:25;97721.44;;;25.38;42.77
55066;BME280;40964;42.114;24.220;2023-05-08T13:05:51;97738.06;;;25.40;42.88
55066;BME280;40964;42.114;24.220;2023-05-08T13:08:17;97735.22;;;25.37;41.25
55066;BME280;40964;42.114;24.220;2023-05-08T13:10:50;97732.72;;;25.01;41.50
55066;BME280;40964;42.114;24.220;2023-05-08T13:13:18;97724.69;;;24.78;41.71
55066;BME280;40964;42.114;24.220;2023-05-08T13:15:44;97714.25;;;25.08;42.04
55066;BME280;40964;42.114;24.220;2023-05-08T13:18:09;97701.81;;;24.89;39.39
55066;BME280;40964;42.114;24.220;2023-05-08T13:20:35;97716.56;;;25.01;38.91
55066;BME280;40964;42.114;24.220;2023-05-08T13:23:02;97722.38;;;25.51;40.99
55066;BME280;40964;42.114;24.220;2023-05-08T13:25:28;97710.88;;;25.77;39.12
55066;BME280;40964;42.114;24.220;2023-05-08T13:27:54;97702.47;;;25.87;38.93
55066;BME280;40964;42.114;24.220;2023-05-08T13:30:20;97711.16;;;25.58;40.18
55066;BME280;40964;42.114;24.220;2023-05-08T13:32:47;97705.47;;;25.94;40.31